sensor_id;sensor_type;location;lat;lon;timestamp;P1;durP1;ratioP1;P2;durP2;ratioP2
41667;SDS011;27356;50.920;5.350;2023-06-10T00:02:20;9.90;;;5.95;;
41667;SDS011;27356;50.920;5.350;2023-06-10T00:04:46;8.50;;;5.43;;
41667;SDS011;27356;50.920;5.350;2023-06-10T00:07:12;8.23;;;5.93;;
41667;SDS011;27356;50.920;5.350;2023-06-10T00:09:38;5.80;;;5.20;;
41667;SDS011;27356;50.920;5.350;2023-06-10T00:12:04;6.53;;;5.53;;
41667;SDS011;27356;50.920;5.350;2023-06-10T00:14:38;6.43;;;5.22;;
41667;SDS011;27356;50.920;5.350;2023-06-10T00:17:05;8.00;;;5.18;;
41667;SDS011;27356;50.920;5.350;2023-06-10T00:19:34;10.85;;;5.45;;
41667;SDS011;27356;50.920;5.350;2023-06-10T00:22:01;7.05;;;5.30;;
41667;SDS011;27356;50.920;5.350;2023-06-10T00:24:28;6.07;;;5.47;;
41667;SDS011;27356;50.920;5.350;2023-06-10T00:26:54;8.85;;;5.72;;
41667;SDS011;27356;50.920;5.350;2023-06-10T00:29:20;7.82;;;5.88;;
41667;SDS011;27356;50.920;5.350;2023-06-10T00:31:45;6.43;;;5.38;;
41667;SDS011;27356;50.920;5.350;2023-06-10T00:34:12;9.45;;;5.97;;
41667;SDS011;27356;50.920;5.350;2023-06-10T00:36:37;5.93;;;5.38;;
41667;SDS011;27356;50.920;5.350;2023-06-10T00:39:03;13.43;;;6.20;;
41667;SDS011;27356;50.920;5.350;2023-06-10T00:41:29;8.00;;;6.25;;
41667;SDS011;27356;50.920;5.350;2023-06-10T00:43:56;9.68;;;5.65;;
41667;SDS011;27356;50.920;5.350;2023-06-10T00:46:22;8.02;;;5.68;;
41667;SDS011;27356;50.920;5.350;2023-06-10T00:48:50;8.90;;;6.40;;
41667;SDS011;27356;50.920;5.350;2023-06-10T00:51:16;10.60;;;6.50;;
41667;SDS011;27356;50.920;5.350;2023-06-10T00:53:43;6.38;;;5.75;;
41667;SDS011;27356;50.920;5.350;2023-06-10T00:56:09;6.72;;;6.13;;
41667;SDS011;27356;50.920;5.350;2023-06-10T00:58:35;8.63;;;6.07;;
41667;SDS011;27356;50.920;5.350;2023-06-10T01:01:01;6.47;;;5.75;;
41667;SDS011;27356;50.920;5.350;2023-06-10T01:03:29;7.55;;;5.53;;
41667;SDS011;27356;50.920;5.350;2023-06-10T01:06:02;7.13;;;5.38;;
41667;SDS011;27356;50.920;5.350;2023-06-10T01:08:51;7.50;;;5.88;;
41667;SDS011;27356;50.920;5.350;2023-06-10T01:11:47;8.80;;;6.03;;
41667;SDS011;27356;50.920;5.350;2023-06-10T01:14:17;7.93;;;5.60;;
41667;SDS011;27356;50.920;5.350;2023-06-10T01:16:43;7.57;;;5.47;;
41667;SDS011;27356;50.920;5.350;2023-06-10T01:19:11;7.00;;;5.40;;
41667;SDS011;27356;50.920;5.350;2023-06-10T01:21:38;7.60;;;6.03;;
41667;SDS011;27356;50.920;5.350;2023-06-10T01:24:04;10.23;;;5.65;;
41667;SDS011;27356;50.920;5.350;2023-06-10T01:26:33;8.70;;;6.30;;
41667;SDS011;27356;50.920;5.350;2023-06-10T01:29:03;8.65;;;6.53;;
41667;SDS011;27356;50.920;5.350;2023-06-10T01:31:47;8.77;;;5.93;;
41667;SDS011;27356;50.920;5.350;2023-06-10T01:34:17;8.77;;;5.82;;
41667;SDS011;27356;50.920;5.350;2023-06-10T01:36:48;7.88;;;5.90;;
41667;SDS011;27356;50.920;5.350;2023-06-10T01:39:15;20.95;;;5.68;;
41667;SDS011;27356;50.920;5.350;2023-06-10T01:41:42;14.00;;;6.03;;
41667;SDS011;27356;50.920;5.350;2023-06-10T01:44:08;10.10;;;5.97;;
41667;SDS011;27356;50.920;5.350;2023-06-10T01:46:35;6.63;;;5.90;;
41667;SDS011;27356;50.920;5.350;2023-06-10T01:49:00;9.80;;;6.15;;
41667;SDS011;27356;50.920;5.350;2023-06-10T01:51:26;9.13;;;5.68;;
41667;SDS011;27356;50.920;5.350;2023-06-10T01:53:51;9.30;;;6.70;;
41667;SDS011;27356;50.920;5.350;2023-06-10T01:56:17;8.15;;;6.10;;
41667;SDS011;27356;50.920;5.350;2023-06-10T01:58:45;20.73;;;6.60;;
41667;SDS011;27356;50.920;5.350;2023-06-10T02:01:11;7.60;;;6.18;;
41667;SDS011;27356;50.920;5.350;2023-06-10T02:03:37;9.45;;;6.25;;
41667;SDS011;27356;50.920;5.350;2023-06-10T02:06:02;7.82;;;6.53;;
41667;SDS011;27356;50.920;5.350;2023-06-10T02:08:28;8.80;;;6.65;;
41667;SDS011;27356;50.920;5.350;2023-06-10T02:10:54;10.32;;;6.97;;
41667;SDS011;27356;50.920;5.350;2023-06-10T02:13:20;8.23;;;7.30;;
41667;SDS011;27356;50.920;5.350;2023-06-10T02:15:45;9.07;;;6.45;;
41667;SDS011;27356;50.920;5.350;2023-06-10T02:18:11;8.07;;;6.50;;
41667;SDS011;27356;50.920;5.350;2023-06-10T02:20:37;8.60;;;6.68;;
41667;SDS011;27356;50.920;5.350;2023-06-10T02:23:03;10.30;;;6.40;;
41667;SDS011;27356;50.920;5.350;2023-06-10T02:25:29;9.52;;;7.13;;
41667;SDS011;27356;50.920;5.350;2023-06-10T02:27:54;7.07;;;6.40;;
41667;SDS011;27356;50.920;5.350;2023-06-10T02:30:20;11.48;;;6.25;;
41667;SDS011;27356;50.920;5.350;2023-06-10T02:32:46;11.35;;;6.32;;
41667;SDS011;27356;50.920;5.350;2023-06-10T02:35:13;8.48;;;7.57;;
41667;SDS011;27356;50.920;5.350;2023-06-10T02:37:40;9.85;;;6.70;;
41667;SDS011;27356;50.920;5.350;2023-06-10T02:40:06;7.38;;;6.68;;
41667;SDS011;27356;50.920;5.350;2023-06-10T02:42:32;8.88;;;7.53;;
41667;SDS011;27356;50.920;5.350;2023-06-10T02:44:58;7.72;;;6.93;;
41667;SDS011;27356;50.920;5.350;2023-06-10T02:47:24;8.00;;;7.20;;
41667;SDS011;27356;50.920;5.350;2023-06-10T02:49:49;8.00;;;6.70;;
41667;SDS011;27356;50.920;5.350;2023-06-10T02:52:15;10.20;;;7.00;;
41667;SDS011;27356;50.920;5.350;2023-06-10T02:54:41;8.90;;;7.15;;
41667;SDS011;27356;50.920;5.350;2023-06-10T02:57:06;11.68;;;7.32;;
41667;SDS011;27356;50.920;5.350;2023-06-10T02:59:32;10.88;;;7.43;;
41667;SDS011;27356;50.920;5.350;2023-06-10T03:01:58;12.60;;;7.30;;
41667;SDS011;27356;50.920;5.350;2023-06-10T03:04:26;10.65;;;7.45;;
41667;SDS011;27356;50.920;5.350;2023-06-10T03:06:54;11.25;;;7.38;;
41667;SDS011;27356;50.920;5.350;2023-06-10T03:09:20;8.80;;;7.20;;
41667;SDS011;27356;50.920;5.350;2023-06-10T03:11:46;13.75;;;7.85;;
41667;SDS011;27356;50.920;5.350;2023-06-10T03:14:11;11.40;;;7.57;;
41667;SDS011;27356;50.920;5.350;2023-06-10T03:16:37;9.60;;;7.78;;
41667;SDS011;27356;50.920;5.350;2023-06-10T03:19:07;10.70;;;8.48;;
41667;SDS011;27356;50.920;5.350;2023-06-10T03:21:34;9.63;;;7.57;;
41667;SDS011;27356;50.920;5.350;2023-06-10T03:24:00;11.80;;;7.95;;
41667;SDS011;27356;50.920;5.350;2023-06-10T03:26:26;11.52;;;7.70;;
41667;SDS011;27356;50.920;5.350;2023-06-10T03:28:52;11.95;;;8.07;;
41667;SDS011;27356;50.920;5.350;2023-06-10T03:31:18;8.77;;;7.88;;
41667;SDS011;27356;50.920;5.350;2023-06-10T03:33:44;15.45;;;8.27;;
41667;SDS011;27356;50.920;5.350;2023-06-10T03:36:10;9.90;;;6.88;;
41667;SDS011;27356;50.920;5.350;2023-06-10T03:38:35;11.27;;;7.65;;
41667;SDS011;27356;50.920;5.350;2023-06-10T03:41:01;13.07;;;6.78;;
41667;SDS011;27356;50.920;5.350;2023-06-10T03:43:28;9.52;;;7.70;;
41667;SDS011;27356;50.920;5.350;2023-06-10T03:45:53;8.85;;;6.85;;
41667;SDS011;27356;50.920;5.350;2023-06-10T03:48:19;9.90;;;7.32;;
41667;SDS011;27356;50.920;5.350;2023-06-10T03:50:45;8.75;;;7.38;;
41667;SDS011;27356;50.920;5.350;2023-06-10T03:53:12;9.13;;;7.10;;
41667;SDS011;27356;50.920;5.350;2023-06-10T03:55:38;12.35;;;7.15;;
41667;SDS011;27356;50.920;5.350;2023-06-10T03:58:04;11.20;;;6.47;;
41667;SDS011;27356;50.920;5.350;2023-06-10T04:00:30;10.55;;;7.43;;
41667;SDS011;27356;50.920;5.350;2023-06-10T04:02:55;8.98;;;7.05;;
41667;SDS011;27356;50.920;5.350;2023-06-10T04:05:23;7.80;;;6.85;;
41667;SDS011;27356;50.920;5.350;2023-06-10T04:07:48;7.13;;;6.38;;
41667;SDS011;27356;50.920;5.350;2023-06-10T04:10:15;7.35;;;6.35;;
41667;SDS011;27356;50.920;5.350;2023-06-10T04:12:41;8.98;;;6.60;;
41667;SDS011;27356;50.920;5.350;2023-06-10T04:15:07;8.50;;;6.80;;
41667;SDS011;27356;50.920;5.350;2023-06-10T04:17:33;8.68;;;7.07;;
41667;SDS011;27356;50.920;5.350;2023-06-10T04:19:59;9.75;;;6.05;;
41667;SDS011;27356;50.920;5.350;2023-06-10T04:22:25;8.52;;;6.53;;
41667;SDS011;27356;50.920;5.350;2023-06-10T04:24:51;8.45;;;6.57;;
41667;SDS011;27356;50.920;5.350;2023-06-10T04:27:17;7.10;;;6.05;;
41667;SDS011;27356;50.920;5.350;2023-06-10T04:29:43;7.10;;;6.30;;
41667;SDS011;27356;50.920;5.350;2023-06-10T04:32:09;10.30;;;6.93;;
41667;SDS011;27356;50.920;5.350;2023-06-10T04:34:35;11.15;;;6.57;;
41667;SDS011;27356;50.920;5.350;2023-06-10T04:37:01;9.02;;;6.50;;
41667;SDS011;27356;50.920;5.350;2023-06-10T04:39:27;7.47;;;6.57;;
41667;SDS011;27356;50.920;5.350;2023-06-10T04:41:53;7.18;;;6.13;;
41667;SDS011;27356;50.920;5.350;2023-06-10T04:44:19;12.35;;;7.00;;
41667;SDS011;27356;50.920;5.350;2023-06-10T04:46:44;8.90;;;6.35;;
41667;SDS011;27356;50.920;5.350;2023-06-10T04:49:10;8.90;;;6.55;;
41667;SDS011;27356;50.920;5.350;2023-06-10T04:51:38;7.47;;;6.05;;
41667;SDS011;27356;50.920;5.350;2023-06-10T04:54:04;9.38;;;6.07;;
41667;SDS011;27356;50.920;5.350;2023-06-10T04:56:30;7.20;;;5.75;;
41667;SDS011;27356;50.920;5.350;2023-06-10T04:58:56;6.65;;;5.90;;
41667;SDS011;27356;50.920;5.350;2023-06-10T05:01:22;6.57;;;5.90;;
41667;SDS011;27356;50.920;5.350;2023-06-10T05:03:48;8.00;;;5.95;;
41667;SDS011;27356;50.920;5.350;2023-06-10T05:06:14;5.95;;;5.38;;
41667;SDS011;27356;50.920;5.350;2023-06-10T05:08:40;6.70;;;5.25;;
41667;SDS011;27356;50.920;5.350;2023-06-10T05:11:05;6.18;;;5.57;;
41667;SDS011;27356;50.920;5.350;2023-06-10T05:13:31;8.23;;;6.03;;
41667;SDS011;27356;50.920;5.350;2023-06-10T05:15:57;9.57;;;6.00;;
41667;SDS011;27356;50.920;5.350;2023-06-10T05:18:23;7.53;;;5.50;;
41667;SDS011;27356;50.920;5.350;2023-06-10T05:20:49;12.23;;;5.63;;
41667;SDS011;27356;50.920;5.350;2023-06-10T05:23:14;8.80;;;6.35;;
41667;SDS011;27356;50.920;5.350;2023-06-10T05:25:40;12.75;;;5.90;;
41667;SDS011;27356;50.920;5.350;2023-06-10T05:28:06;6.45;;;5.85;;
41667;SDS011;27356;50.920;5.350;2023-06-10T05:30:35;7.65;;;5.70;;
41667;SDS011;27356;50.920;5.350;2023-06-10T05:33:01;9.07;;;6.00;;
41667;SDS011;27356;50.920;5.350;2023-06-10T05:35:28;7.10;;;5.78;;
41667;SDS011;27356;50.920;5.350;2023-06-10T05:37:53;10.70;;;6.30;;
41667;SDS011;27356;50.920;5.350;2023-06-10T05:40:19;6.63;;;5.93;;
41667;SDS011;27356;50.920;5.350;2023-06-10T05:42:45;8.40;;;5.85;;
41667;SDS011;27356;50.920;5.350;2023-06-10T05:45:11;7.45;;;4.80;;
41667;SDS011;27356;50.920;5.350;2023-06-10T05:47:36;9.38;;;6.20;;
41667;SDS011;27356;50.920;5.350;2023-06-10T05:50:02;9.85;;;5.38;;
41667;SDS011;27356;50.920;5.350;2023-06-10T05:52:32;6.20;;;4.80;;
41667;SDS011;27356;50.920;5.350;2023-06-10T05:55:01;7.07;;;5.65;;
41667;SDS011;27356;50.920;5.350;2023-06-10T05:57:27;8.57;;;5.80;;
41667;SDS011;27356;50.920;5.350;2023-06-10T05:59:53;6.07;;;4.88;;
41667;SDS011;27356;50.920;5.350;2023-06-10T06:02:19;9.20;;;5.45;;
41667;SDS011;27356;50.920;5.350;2023-06-10T06:04:45;5.20;;;4.72;;
41667;SDS011;27356;50.920;5.350;2023-06-10T06:07:10;8.25;;;5.20;;
41667;SDS011;27356;50.920;5.350;2023-06-10T06:09:36;8.55;;;4.70;;
41667;SDS011;27356;50.920;5.350;2023-06-10T06:12:02;8.57;;;4.35;;
41667;SDS011;27356;50.920;5.350;2023-06-10T06:14:30;6.15;;;4.90;;
41667;SDS011;27356;50.920;5.350;2023-06-10T06:16:56;6.47;;;4.30;;
41667;SDS011;27356;50.920;5.350;2023-06-10T06:19:22;6.00;;;3.95;;
41667;SDS011;27356;50.920;5.350;2023-06-10T06:21:48;5.68;;;4.35;;
41667;SDS011;27356;50.920;5.350;2023-06-10T06:24:14;6.60;;;4.60;;
41667;SDS011;27356;50.920;5.350;2023-06-10T06:26:40;5.80;;;3.97;;
41667;SDS011;27356;50.920;5.350;2023-06-10T06:29:06;4.57;;;3.92;;
41667;SDS011;27356;50.920;5.350;2023-06-10T06:31:32;7.32;;;4.65;;
41667;SDS011;27356;50.920;5.350;2023-06-10T06:33:58;6.78;;;3.83;;
41667;SDS011;27356;50.920;5.350;2023-06-10T06:36:24;3.97;;;3.67;;
41667;SDS011;27356;50.920;5.350;2023-06-10T06:38:50;8.48;;;4.38;;
41667;SDS011;27356;50.920;5.350;2023-06-10T06:41:15;4.45;;;4.05;;
41667;SDS011;27356;50.920;5.350;2023-06-10T06:43:41;6.97;;;4.13;;
41667;SDS011;27356;50.920;5.350;2023-06-10T06:46:08;5.85;;;3.72;;
41667;SDS011;27356;50.920;5.350;2023-06-10T06:48:34;4.40;;;4.00;;
41667;SDS011;27356;50.920;5.350;2023-06-10T06:51:00;5.07;;;4.47;;
41667;SDS011;27356;50.920;5.350;2023-06-10T06:53:26;4.88;;;4.07;;
41667;SDS011;27356;50.920;5.350;2023-06-10T06:55:52;6.60;;;4.05;;
41667;SDS011;27356;50.920;5.350;2023-06-10T06:58:18;5.30;;;4.35;;
41667;SDS011;27356;50.920;5.350;2023-06-10T07:00:44;5.18;;;4.65;;
41667;SDS011;27356;50.920;5.350;2023-06-10T07:03:10;7.95;;;4.50;;
41667;SDS011;27356;50.920;5.350;2023-06-10T07:05:36;4.10;;;3.70;;
41667;SDS011;27356;50.920;5.350;2023-06-10T07:08:03;4.95;;;4.55;;
41667;SDS011;27356;50.920;5.350;2023-06-10T07:10:29;6.72;;;4.22;;
41667;SDS011;27356;50.920;5.350;2023-06-10T07:12:55;7.38;;;4.60;;
41667;SDS011;27356;50.920;5.350;2023-06-10T07:15:21;10.13;;;4.20;;
41667;SDS011;27356;50.920;5.350;2023-06-10T07:17:47;5.22;;;3.95;;
41667;SDS011;27356;50.920;5.350;2023-06-10T07:20:13;5.43;;;4.93;;
41667;SDS011;27356;50.920;5.350;2023-06-10T07:22:40;8.25;;;4.18;;
41667;SDS011;27356;50.920;5.350;2023-06-10T07:25:07;5.72;;;4.00;;
41667;SDS011;27356;50.920;5.350;2023-06-10T07:27:32;6.43;;;3.88;;
41667;SDS011;27356;50.920;5.350;2023-06-10T07:30:01;6.82;;;4.32;;
41667;SDS011;27356;50.920;5.350;2023-06-10T07:32:27;5.53;;;4.22;;
41667;SDS011;27356;50.920;5.350;2023-06-10T07:34:53;5.05;;;4.53;;
41667;SDS011;27356;50.920;5.350;2023-06-10T07:37:19;4.18;;;3.78;;
41667;SDS011;27356;50.920;5.350;2023-06-10T07:39:44;8.50;;;3.78;;
41667;SDS011;27356;50.920;5.350;2023-06-10T07:42:11;4.63;;;4.25;;
41667;SDS011;27356;50.920;5.350;2023-06-10T07:44:36;4.85;;;4.18;;
41667;SDS011;27356;50.920;5.350;2023-06-10T07:47:02;6.32;;;3.85;;
41667;SDS011;27356;50.920;5.350;2023-06-10T07:49:28;6.60;;;4.00;;
41667;SDS011;27356;50.920;5.350;2023-06-10T07:51:59;4.18;;;3.60;;
41667;SDS011;27356;50.920;5.350;2023-06-10T07:54:32;6.65;;;3.90;;
41667;SDS011;27356;50.920;5.350;2023-06-10T07:56:58;7.90;;;4.10;;
41667;SDS011;27356;50.920;5.350;2023-06-10T07:59:24;4.45;;;3.72;;
41667;SDS011;27356;50.920;5.350;2023-06-10T08:01:51;4.82;;;3.47;;
41667;SDS011;27356;50.920;5.350;2023-06-10T08:04:18;4.10;;;3.75;;
41667;SDS011;27356;50.920;5.350;2023-06-10T08:06:43;6.75;;;3.70;;
41667;SDS011;27356;50.920;5.350;2023-06-10T08:09:09;5.75;;;3.30;;
41667;SDS011;27356;50.920;5.350;2023-06-10T08:11:35;5.45;;;3.80;;
41667;SDS011;27356;50.920;5.350;2023-06-10T08:14:01;8.70;;;3.65;;
41667;SDS011;27356;50.920;5.350;2023-06-10T08:16:27;4.78;;;4.22;;
41667;SDS011;27356;50.920;5.350;2023-06-10T08:18:53;8.95;;;3.72;;
41667;SDS011;27356;50.920;5.350;2023-06-10T08:21:18;4.82;;;3.47;;
41667;SDS011;27356;50.920;5.350;2023-06-10T08:23:44;4.03;;;3.22;;
41667;SDS011;27356;50.920;5.350;2023-06-10T08:26:10;6.38;;;3.35;;
41667;SDS011;27356;50.920;5.350;2023-06-10T08:28:36;5.00;;;3.33;;
41667;SDS011;27356;50.920;5.350;2023-06-10T08:31:02;4.65;;;3.20;;
41667;SDS011;27356;50.920;5.350;2023-06-10T08:33:27;2.88;;;2.70;;
41667;SDS011;27356;50.920;5.350;2023-06-10T08:35:53;3.92;;;3.60;;
41667;SDS011;27356;50.920;5.350;2023-06-10T08:38:19;4.72;;;3.55;;
41667;SDS011;27356;50.920;5.350;2023-06-10T08:40:45;4.38;;;3.15;;
41667;SDS011;27356;50.920;5.350;2023-06-10T08:43:22;3.92;;;2.88;;
41667;SDS011;27356;50.920;5.350;2023-06-10T08:45:56;4.50;;;3.20;;
41667;SDS011;27356;50.920;5.350;2023-06-10T08:48:26;5.38;;;3.40;;
41667;SDS011;27356;50.920;5.350;2023-06-10T08:50:55;9.30;;;3.60;;
41667;SDS011;27356;50.920;5.350;2023-06-10T08:53:23;5.70;;;3.67;;
41667;SDS011;27356;50.920;5.350;2023-06-10T08:55:52;3.83;;;3.40;;
41667;SDS011;27356;50.920;5.350;2023-06-10T08:58:20;6.35;;;3.30;;
41667;SDS011;27356;50.920;5.350;2023-06-10T09:00:46;7.40;;;3.78;;
41667;SDS011;27356;50.920;5.350;2023-06-10T09:03:11;6.22;;;3.30;;
41667;SDS011;27356;50.920;5.350;2023-06-10T09:05:38;4.53;;;3.42;;
41667;SDS011;27356;50.920;5.350;2023-06-10T09:08:07;4.32;;;3.17;;
41667;SDS011;27356;50.920;5.350;2023-06-10T09:13:00;3.45;;;2.90;;
41667;SDS011;27356;50.920;5.350;2023-06-10T09:15:26;4.95;;;2.95;;
41667;SDS011;27356;50.920;5.350;2023-06-10T09:17:52;3.55;;;3.13;;
41667;SDS011;27356;50.920;5.350;2023-06-10T09:20:18;6.75;;;3.45;;
41667;SDS011;27356;50.920;5.350;2023-06-10T09:22:44;8.35;;;3.60;;
41667;SDS011;27356;50.920;5.350;2023-06-10T09:25:11;3.38;;;3.17;;
41667;SDS011;27356;50.920;5.350;2023-06-10T09:32:55;3.42;;;3.13;;
41667;SDS011;27356;50.920;5.350;2023-06-10T09:35:23;3.75;;;3.42;;
41667;SDS011;27356;50.920;5.350;2023-06-10T09:37:53;7.30;;;3.95;;
41667;SDS011;27356;50.920;5.350;2023-06-10T09:40:20;3.88;;;2.97;;
41667;SDS011;27356;50.920;5.350;2023-06-10T09:42:46;4.53;;;3.20;;
41667;SDS011;27356;50.920;5.350;2023-06-10T09:45:27;3.60;;;3.03;;
41667;SDS011;27356;50.920;5.350;2023-06-10T09:47:58;3.95;;;3.47;;
41667;SDS011;27356;50.920;5.350;2023-06-10T09:50:25;4.45;;;3.25;;
41667;SDS011;27356;50.920;5.350;2023-06-10T09:52:51;5.28;;;3.35;;
41667;SDS011;27356;50.920;5.350;2023-06-10T09:55:17;5.15;;;3.70;;
41667;SDS011;27356;50.920;5.350;2023-06-10T09:57:43;5.03;;;3.47;;
41667;SDS011;27356;50.920;5.350;2023-06-10T10:00:13;9.45;;;3.22;;
41667;SDS011;27356;50.920;5.350;2023-06-10T10:03:12;7.53;;;3.30;;
41667;SDS011;27356;50.920;5.350;2023-06-10T10:05:32;4.22;;;3.35;;
41667;SDS011;27356;50.920;5.350;2023-06-10T10:07:57;5.18;;;3.42;;
41667;SDS011;27356;50.920;5.350;2023-06-10T10:10:23;4.55;;;3.30;;
41667;SDS011;27356;50.920;5.350;2023-06-10T10:12:54;4.38;;;3.35;;
41667;SDS011;27356;50.920;5.350;2023-06-10T10:15:23;3.70;;;3.35;;
41667;SDS011;27356;50.920;5.350;2023-06-10T10:17:58;4.32;;;3.50;;
41667;SDS011;27356;50.920;5.350;2023-06-10T10:20:34;4.03;;;3.60;;
41667;SDS011;27356;50.920;5.350;2023-06-10T10:23:09;3.63;;;3.33;;
41667;SDS011;27356;50.920;5.350;2023-06-10T10:25:39;5.38;;;3.78;;
41667;SDS011;27356;50.920;5.350;2023-06-10T10:28:11;3.90;;;3.55;;
41667;SDS011;27356;50.920;5.350;2023-06-10T10:30:40;5.45;;;3.70;;
41667;SDS011;27356;50.920;5.350;2023-06-10T10:33:22;4.25;;;3.60;;
41667;SDS011;27356;50.920;5.350;2023-06-10T10:35:51;5.20;;;3.55;;
41667;SDS011;27356;50.920;5.350;2023-06-10T10:38:18;4.80;;;3.92;;
41667;SDS011;27356;50.920;5.350;2023-06-10T10:40:46;7.50;;;3.95;;
41667;SDS011;27356;50.920;5.350;2023-06-10T10:43:12;5.07;;;3.90;;
41667;SDS011;27356;50.920;5.350;2023-06-10T10:45:39;8.65;;;3.78;;
41667;SDS011;27356;50.920;5.350;2023-06-10T10:48:06;4.60;;;3.67;;
41667;SDS011;27356;50.920;5.350;2023-06-10T10:50:37;10.77;;;3.88;;
41667;SDS011;27356;50.920;5.350;2023-06-10T10:53:04;4.07;;;3.65;;
41667;SDS011;27356;50.920;5.350;2023-06-10T10:55:31;5.80;;;3.63;;
41667;SDS011;27356;50.920;5.350;2023-06-10T10:58:05;4.40;;;3.75;;
41667;SDS011;27356;50.920;5.350;2023-06-10T11:00:33;5.68;;;3.40;;
41667;SDS011;27356;50.920;5.350;2023-06-10T11:05:35;4.25;;;3.05;;
41667;SDS011;27356;50.920;5.350;2023-06-10T11:08:01;3.67;;;3.35;;
41667;SDS011;27356;50.920;5.350;2023-06-10T11:10:34;7.00;;;3.47;;
41667;SDS011;27356;50.920;5.350;2023-06-10T11:13:08;4.55;;;3.38;;
41667;SDS011;27356;50.920;5.350;2023-06-10T11:15:44;4.13;;;3.72;;
41667;SDS011;27356;50.920;5.350;2023-06-10T11:18:12;4.28;;;3.80;;
41667;SDS011;27356;50.920;5.350;2023-06-10T11:20:52;5.15;;;3.47;;
41667;SDS011;27356;50.920;5.350;2023-06-10T11:31:33;5.03;;;3.90;;
41667;SDS011;27356;50.920;5.350;2023-06-10T11:34:02;5.15;;;3.58;;
41667;SDS011;27356;50.920;5.350;2023-06-10T11:36:30;3.70;;;3.40;;
41667;SDS011;27356;50.920;5.350;2023-06-10T11:38:58;4.38;;;3.28;;
41667;SDS011;27356;50.920;5.350;2023-06-10T11:41:26;4.97;;;4.05;;
41667;SDS011;27356;50.920;5.350;2023-06-10T11:43:56;3.28;;;2.97;;
41667;SDS011;27356;50.920;5.350;2023-06-10T11:46:43;6.03;;;3.25;;
41667;SDS011;27356;50.920;5.350;2023-06-10T11:49:10;4.43;;;3.10;;
41667;SDS011;27356;50.920;5.350;2023-06-10T11:51:40;5.07;;;3.55;;
41667;SDS011;27356;50.920;5.350;2023-06-10T11:54:13;5.97;;;3.13;;
41667;SDS011;27356;50.920;5.350;2023-06-10T11:56:40;4.28;;;3.63;;
41667;SDS011;27356;50.920;5.350;2023-06-10T11:59:06;6.10;;;3.35;;
41667;SDS011;27356;50.920;5.350;2023-06-10T12:01:34;4.75;;;3.53;;
41667;SDS011;27356;50.920;5.350;2023-06-10T12:04:05;3.50;;;3.20;;
41667;SDS011;27356;50.920;5.350;2023-06-10T12:11:57;5.93;;;3.15;;
41667;SDS011;27356;50.920;5.350;2023-06-10T12:14:55;3.00;;;2.80;;
41667;SDS011;27356;50.920;5.350;2023-06-10T12:19:56;5.38;;;3.58;;
41667;SDS011;27356;50.920;5.350;2023-06-10T12:22:22;5.40;;;3.13;;
41667;SDS011;27356;50.920;5.350;2023-06-10T12:24:59;5.13;;;3.42;;
41667;SDS011;27356;50.920;5.350;2023-06-10T12:27:28;5.47;;;3.20;;
41667;SDS011;27356;50.920;5.350;2023-06-10T12:29:55;10.40;;;3.53;;
41667;SDS011;27356;50.920;5.350;2023-06-10T12:32:34;4.47;;;3.80;;
41667;SDS011;27356;50.920;5.350;2023-06-10T12:35:20;5.75;;;3.25;;
41667;SDS011;27356;50.920;5.350;2023-06-10T12:38:02;5.85;;;3.92;;
41667;SDS011;27356;50.920;5.350;2023-06-10T12:40:38;5.40;;;3.22;;
41667;SDS011;27356;50.920;5.350;2023-06-10T12:43:05;6.90;;;3.22;;
41667;SDS011;27356;50.920;5.350;2023-06-10T12:45:35;3.60;;;3.30;;
41667;SDS011;27356;50.920;5.350;2023-06-10T12:48:20;3.28;;;2.85;;
41667;SDS011;27356;50.920;5.350;2023-06-10T12:50:53;5.97;;;3.80;;
41667;SDS011;27356;50.920;5.350;2023-06-10T12:53:21;7.80;;;3.40;;
41667;SDS011;27356;50.920;5.350;2023-06-10T12:55:53;3.90;;;3.40;;
41667;SDS011;27356;50.920;5.350;2023-06-10T12:58:19;4.13;;;2.88;;
41667;SDS011;27356;50.920;5.350;2023-06-10T13:00:47;4.68;;;3.30;;
41667;SDS011;27356;50.920;5.350;2023-06-10T13:03:14;3.60;;;3.30;;
41667;SDS011;27356;50.920;5.350;2023-06-10T13:05:40;4.85;;;3.33;;
41667;SDS011;27356;50.920;5.350;2023-06-10T13:08:06;7.32;;;3.60;;
41667;SDS011;27356;50.920;5.350;2023-06-10T13:10:32;4.50;;;3.53;;
41667;SDS011;27356;50.920;5.350;2023-06-10T13:13:02;6.45;;;3.15;;
41667;SDS011;27356;50.920;5.350;2023-06-10T13:15:31;3.50;;;3.20;;
41667;SDS011;27356;50.920;5.350;2023-06-10T13:18:01;4.60;;;3.55;;
41667;SDS011;27356;50.920;5.350;2023-06-10T13:20:30;5.85;;;3.63;;
41667;SDS011;27356;50.920;5.350;2023-06-10T13:22:56;3.70;;;3.33;;
41667;SDS011;27356;50.920;5.350;2023-06-10T13:25:22;3.75;;;3.35;;
41667;SDS011;27356;50.920;5.350;2023-06-10T13:27:48;4.80;;;3.45;;
41667;SDS011;27356;50.920;5.350;2023-06-10T13:30:14;5.97;;;3.08;;
41667;SDS011;27356;50.920;5.350;2023-06-10T13:32:39;4.25;;;3.47;;
41667;SDS011;27356;50.920;5.350;2023-06-10T13:35:05;5.82;;;3.80;;
41667;SDS011;27356;50.920;5.350;2023-06-10T13:37:32;2.75;;;2.55;;
41667;SDS011;27356;50.920;5.350;2023-06-10T13:39:59;4.57;;;2.92;;
41667;SDS011;27356;50.920;5.350;2023-06-10T13:42:25;3.00;;;2.80;;
41667;SDS011;27356;50.920;5.350;2023-06-10T13:44:51;4.38;;;2.83;;
41667;SDS011;27356;50.920;5.350;2023-06-10T13:47:17;6.85;;;3.22;;
41667;SDS011;27356;50.920;5.350;2023-06-10T13:49:43;7.60;;;3.38;;
41667;SDS011;27356;50.920;5.350;2023-06-10T13:52:09;4.63;;;2.92;;
41667;SDS011;27356;50.920;5.350;2023-06-10T13:54:34;4.25;;;2.92;;
41667;SDS011;27356;50.920;5.350;2023-06-10T13:57:03;4.03;;;3.45;;
41667;SDS011;27356;50.920;5.350;2023-06-10T13:59:29;3.40;;;3.10;;
41667;SDS011;27356;50.920;5.350;2023-06-10T14:01:55;3.28;;;2.97;;
41667;SDS011;27356;50.920;5.350;2023-06-10T14:04:21;3.72;;;3.10;;
41667;SDS011;27356;50.920;5.350;2023-06-10T14:06:47;4.10;;;2.80;;
41667;SDS011;27356;50.920;5.350;2023-06-10T14:09:13;3.67;;;3.38;;
41667;SDS011;27356;50.920;5.350;2023-06-10T14:11:39;4.22;;;3.35;;
41667;SDS011;27356;50.920;5.350;2023-06-10T14:14:05;3.13;;;2.83;;
41667;SDS011;27356;50.920;5.350;2023-06-10T14:16:31;3.40;;;3.10;;
41667;SDS011;27356;50.920;5.350;2023-06-10T14:18:57;3.58;;;2.60;;
41667;SDS011;27356;50.920;5.350;2023-06-10T14:21:23;4.28;;;3.05;;
41667;SDS011;27356;50.920;5.350;2023-06-10T14:23:50;5.10;;;3.47;;
41667;SDS011;27356;50.920;5.350;2023-06-10T14:26:27;5.32;;;2.95;;
41667;SDS011;27356;50.920;5.350;2023-06-10T14:28:53;5.25;;;3.30;;
41667;SDS011;27356;50.920;5.350;2023-06-10T14:31:19;5.88;;;3.40;;
41667;SDS011;27356;50.920;5.350;2023-06-10T14:33:45;3.90;;;3.00;;
41667;SDS011;27356;50.920;5.350;2023-06-10T14:36:11;3.70;;;3.35;;
41667;SDS011;27356;50.920;5.350;2023-06-10T14:38:37;6.05;;;3.40;;
41667;SDS011;27356;50.920;5.350;2023-06-10T14:41:03;4.40;;;2.70;;
41667;SDS011;27356;50.920;5.350;2023-06-10T14:43:29;3.30;;;3.05;;
41667;SDS011;27356;50.920;5.350;2023-06-10T14:45:55;7.53;;;3.10;;
41667;SDS011;27356;50.920;5.350;2023-06-10T14:48:21;5.57;;;3.15;;
41667;SDS011;27356;50.920;5.350;2023-06-10T14:50:47;6.20;;;3.33;;
41667;SDS011;27356;50.920;5.350;2023-06-10T14:53:16;3.55;;;3.25;;
41667;SDS011;27356;50.920;5.350;2023-06-10T14:55:42;6.03;;;3.38;;
41667;SDS011;27356;50.920;5.350;2023-06-10T14:58:08;6.50;;;3.10;;
41667;SDS011;27356;50.920;5.350;2023-06-10T15:00:34;7.55;;;3.33;;
41667;SDS011;27356;50.920;5.350;2023-06-10T15:03:00;3.53;;;3.22;;
41667;SDS011;27356;50.920;5.350;2023-06-10T15:05:27;6.32;;;4.15;;
41667;SDS011;27356;50.920;5.350;2023-06-10T15:07:53;4.13;;;3.20;;
41667;SDS011;27356;50.920;5.350;2023-06-10T15:10:19;3.30;;;3.00;;
41667;SDS011;27356;50.920;5.350;2023-06-10T15:12:46;3.00;;;2.80;;
41667;SDS011;27356;50.920;5.350;2023-06-10T15:15:12;8.07;;;3.85;;